createdAt,value
2023-01-11T00:01:12.498Z,64.60
2023-01-11T00:03:39.809Z,64.40
2023-01-11T00:06:08.235Z,64.50
2023-01-11T00:08:37.838Z,64.50
2023-01-11T00:11:10.913Z,64.40
2023-01-11T00:13:40.594Z,64.50
2023-01-11T00:16:09.289Z,64.60
2023-01-11T00:18:37.325Z,64.70
2023-01-11T00:21:08.166Z,64.70
2023-01-11T00:23:36.658Z,64.70
2023-01-11T00:26:10.291Z,64.70
2023-01-11T00:28:37.574Z,64.50
2023-01-11T00:31:05.009Z,64.60
2023-01-11T00:33:34.415Z,64.60
2023-01-11T00:36:01.726Z,64.60
2023-01-11T00:38:44.018Z,64.50
2023-01-11T00:41:35.803Z,64.50
2023-01-11T00:44:23.010Z,64.60
2023-01-11T00:47:10.862Z,64.70
2023-01-11T00:49:38.303Z,64.60
2023-01-11T00:52:09.797Z,64.70
2023-01-11T00:54:38.740Z,64.70
2023-01-11T00:57:07.409Z,64.70
2023-01-11T00:59:39.613Z,64.70
2023-01-11T01:02:08.339Z,64.80
2023-01-11T01:04:35.767Z,64.80
2023-01-11T01:07:03.559Z,64.80
2023-01-11T01:09:31.281Z,64.60
2023-01-11T01:11:59.490Z,64.60
2023-01-11T01:14:28.529Z,64.60
2023-01-11T01:17:04.516Z,64.70
2023-01-11T01:19:32.252Z,64.60
2023-01-11T01:22:00.339Z,64.70
2023-01-11T01:24:28.939Z,64.70
2023-01-11T01:27:01.720Z,64.90
2023-01-11T01:29:31.526Z,64.80
2023-01-11T01:31:58.838Z,64.80
2023-01-11T01:34:26.243Z,64.80
2023-01-11T01:36:56.001Z,64.90
2023-01-11T01:39:25.653Z,65.00
2023-01-11T01:41:53.009Z,65.00
2023-01-11T01:44:48.380Z,65.10
2023-01-11T01:47:16.163Z,64.90
2023-01-11T01:49:44.977Z,65.20
2023-01-11T01:52:13.121Z,65.00
2023-01-11T01:54:43.968Z,64.90
2023-01-11T01:57:24.942Z,64.90
2023-01-11T01:59:55.205Z,64.80
2023-01-11T02:02:25.038Z,65.00
2023-01-11T02:04:56.392Z,65.20
2023-01-11T02:07:33.230Z,65.20
2023-01-11T02:10:11.736Z,65.00
2023-01-11T02:12:50.795Z,65.10
2023-01-11T02:15:19.763Z,65.10
2023-01-11T02:17:47.070Z,65.20
2023-01-11T02:20:26.870Z,65.50
2023-01-11T02:23:18.127Z,65.40
2023-01-11T02:26:11.408Z,65.60
2023-01-11T02:29:12.095Z,65.40
2023-01-11T02:31:59.681Z,65.80
2023-01-11T02:34:35.046Z,65.90
2023-01-11T02:37:26.858Z,66.00
2023-01-11T02:40:27.065Z,65.80
2023-01-11T02:43:26.685Z,65.80
2023-01-11T02:46:16.951Z,66.10
2023-01-11T02:48:55.760Z,66.30
2023-01-11T02:51:37.343Z,66.50
2023-01-11T02:54:12.537Z,66.50
2023-01-11T02:56:47.446Z,66.60
2023-01-11T02:59:23.124Z,66.80
2023-01-11T03:01:55.795Z,66.80
2023-01-11T03:04:27.953Z,67.50
2023-01-11T03:07:19.023Z,66.70
2023-01-11T03:10:17.445Z,66.80
2023-01-11T03:13:12.222Z,66.50
2023-01-11T03:16:04.521Z,66.60
2023-01-11T03:18:53.822Z,66.60
2023-01-11T03:21:36.100Z,67.20
2023-01-11T03:24:22.396Z,66.40
2023-01-11T03:27:17.592Z,66.60
2023-01-11T03:30:06.215Z,66.70
2023-01-11T03:32:45.557Z,66.90
2023-01-11T03:35:39.638Z,67.00
2023-01-11T03:38:15.967Z,66.90
2023-01-11T03:40:54.330Z,67.00
2023-01-11T03:43:26.539Z,66.90
2023-01-11T03:45:53.836Z,66.90
2023-01-11T03:48:34.790Z,67.00
2023-01-11T03:51:05.534Z,66.90
2023-01-11T03:53:38.761Z,67.20
2023-01-11T03:56:10.664Z,67.20
2023-01-11T03:58:38.109Z,67.30
2023-01-11T04:01:05.798Z,67.30
2023-01-11T04:03:35.461Z,67.40
2023-01-11T04:06:03.237Z,67.30
2023-01-11T04:08:32.824Z,67.30
2023-01-11T04:11:02.519Z,67.30
2023-01-11T04:13:29.857Z,67.30
2023-01-11T04:15:57.171Z,67.40
2023-01-11T04:18:26.648Z,67.20
2023-01-11T04:20:56.457Z,67.30
2023-01-11T04:23:23.791Z,67.20
2023-01-11T04:25:51.070Z,67.20
2023-01-11T04:28:20.589Z,67.10
2023-01-11T04:30:47.862Z,67.00
2023-01-11T04:33:18.871Z,67.10
2023-01-11T04:35:46.178Z,67.30
2023-01-11T04:38:13.467Z,67.40
2023-01-11T04:40:40.723Z,67.50
2023-01-11T04:43:08.024Z,67.50
2023-01-11T04:45:35.359Z,67.60
2023-01-11T04:48:02.799Z,67.50
2023-01-11T04:50:30.185Z,67.40
2023-01-11T04:53:01.175Z,67.30
2023-01-11T04:55:28.466Z,67.30
2023-01-11T04:57:55.715Z,67.40
2023-01-11T05:00:22.957Z,67.40
2023-01-11T05:02:52.338Z,67.30
2023-01-11T05:05:19.653Z,67.50
2023-01-11T05:07:48.758Z,67.60
2023-01-11T05:10:21.020Z,67.60
2023-01-11T05:12:48.496Z,67.60
2023-01-11T05:15:17.927Z,67.60
2023-01-11T05:17:47.693Z,67.60
2023-01-11T05:20:15.075Z,67.50
2023-01-11T05:22:42.406Z,67.60
2023-01-11T05:25:09.870Z,67.60
2023-01-11T05:27:37.103Z,67.70
2023-01-11T05:30:04.872Z,67.80
2023-01-11T05:32:34.592Z,67.70
2023-01-11T05:35:01.926Z,67.60
2023-01-11T05:37:29.928Z,67.70
2023-01-11T05:39:59.405Z,67.60
2023-01-11T05:42:26.963Z,67.70
2023-01-11T05:45:26.394Z,67.70
2023-01-11T05:47:54.125Z,67.60
2023-01-11T05:50:21.703Z,67.60
2023-01-11T05:52:48.972Z,67.60
2023-01-11T05:55:16.461Z,67.50
2023-01-11T05:57:47.154Z,67.50
2023-01-11T06:00:15.139Z,67.40
2023-01-11T06:02:44.669Z,67.40
2023-01-11T06:05:14.383Z,67.40
2023-01-11T06:07:43.885Z,67.40
2023-01-11T06:10:13.423Z,67.40
2023-01-11T06:12:43.198Z,67.30
2023-01-11T06:15:12.904Z,67.30
2023-01-11T06:17:42.648Z,67.20
2023-01-11T06:20:10.743Z,67.20
2023-01-11T06:22:40.602Z,67.40
2023-01-11T06:25:08.165Z,67.50
2023-01-11T06:27:35.433Z,67.50
2023-01-11T06:30:05.044Z,67.40
2023-01-11T06:32:34.790Z,67.20
2023-01-11T06:35:04.925Z,67.20
2023-01-11T06:37:32.210Z,67.20
2023-01-11T06:40:01.639Z,67.10
2023-01-11T06:42:28.923Z,66.90
2023-01-11T06:44:56.230Z,67.00
2023-01-11T06:47:25.815Z,67.10
2023-01-11T06:49:55.792Z,67.00
2023-01-11T06:52:25.434Z,67.00
2023-01-11T06:54:55.117Z,67.20
2023-01-11T06:57:22.407Z,67.30
2023-01-11T06:59:49.708Z,67.30
2023-01-11T07:02:17.279Z,67.30
2023-01-11T07:04:49.408Z,67.50
2023-01-11T07:07:16.797Z,67.60
2023-01-11T07:09:44.364Z,67.70
2023-01-11T07:12:11.609Z,67.70
2023-01-11T07:14:43.614Z,67.70
2023-01-11T07:17:11.083Z,67.70
2023-01-11T07:19:39.894Z,67.50
2023-01-11T07:22:07.232Z,67.30
2023-01-11T07:24:34.885Z,67.40
2023-01-11T07:27:03.145Z,67.50
2023-01-11T07:29:32.730Z,67.40
2023-01-11T07:32:00.131Z,67.10
2023-01-11T07:34:27.371Z,67.10
2023-01-11T07:36:54.634Z,67.20
2023-01-11T07:39:26.814Z,67.40
2023-01-11T07:42:17.893Z,67.30
2023-01-11T07:44:45.696Z,67.50
2023-01-11T07:47:15.293Z,67.40
2023-01-11T07:49:42.565Z,67.40
2023-01-11T07:52:09.895Z,67.70
2023-01-11T07:54:37.221Z,67.70
2023-01-11T07:57:04.532Z,67.80
2023-01-11T07:59:31.819Z,67.80
2023-01-11T08:01:59.064Z,67.90
2023-01-11T08:04:26.482Z,67.90
2023-01-11T08:06:53.751Z,67.90
2023-01-11T08:09:23.231Z,67.80
2023-01-11T08:12:09.170Z,67.90
2023-01-11T08:14:42.054Z,68.10
2023-01-11T08:17:14.922Z,68.10
2023-01-11T08:19:43.058Z,68.20
2023-01-11T08:22:10.555Z,68.30
2023-01-11T08:24:38.036Z,68.40
2023-01-11T08:27:05.469Z,68.50
2023-01-11T08:29:32.864Z,68.50
2023-01-11T08:32:00.666Z,68.50
2023-01-11T08:34:29.079Z,68.40
2023-01-11T08:36:57.655Z,68.50
2023-01-11T08:39:31.221Z,68.60
2023-01-11T08:42:03.179Z,68.60
2023-01-11T08:44:34.526Z,68.70
2023-01-11T08:47:03.633Z,68.80
2023-01-11T08:49:31.000Z,68.80
2023-01-11T08:51:58.351Z,69.20
2023-01-11T08:54:25.866Z,68.70
2023-01-11T08:56:53.216Z,68.40
2023-01-11T08:59:23.126Z,68.30
2023-01-11T09:01:50.482Z,68.20
2023-01-11T09:04:25.286Z,68.20
2023-01-11T09:06:55.409Z,68.20
2023-01-11T09:09:23.035Z,68.30
2023-01-11T09:11:57.631Z,68.30
2023-01-11T09:14:26.470Z,68.40
2023-01-11T09:16:54.959Z,68.20
2023-01-11T09:19:22.444Z,68.30
2023-01-11T09:21:50.038Z,68.50
2023-01-11T09:24:17.418Z,68.60
2023-01-11T09:26:44.742Z,68.70
2023-01-11T09:29:12.388Z,68.80
2023-01-11T09:35:31.259Z,69.10
2023-01-11T09:38:00.035Z,69.00
2023-01-11T09:40:42.082Z,68.70
2023-01-11T09:43:14.983Z,68.70
2023-01-11T09:45:51.903Z,68.90
2023-01-11T09:48:33.308Z,69.20
2023-01-11T09:51:01.779Z,69.30
2023-01-11T09:53:38.244Z,69.30
2023-01-11T09:56:12.353Z,69.60
2023-01-11T09:59:08.672Z,69.70
2023-01-11T10:01:51.044Z,70.10
2023-01-11T10:04:34.553Z,70.20
2023-01-11T10:07:14.443Z,70.30
2023-01-11T10:18:37.390Z,70.30
2023-01-11T10:19:42.478Z,70.30
2023-01-11T10:22:33.415Z,70.10
2023-01-11T10:25:11.850Z,70.00
2023-01-11T10:27:49.361Z,69.80
2023-01-11T10:30:37.035Z,69.80
2023-01-11T10:34:14.476Z,69.90
2023-01-11T10:37:09.373Z,69.90
2023-01-11T10:40:03.324Z,69.80
2023-01-11T10:42:40.630Z,69.90
2023-01-11T10:45:33.133Z,69.90
2023-01-11T10:48:24.488Z,70.00
2023-01-11T10:51:08.168Z,69.70
2023-01-11T10:53:57.880Z,69.80
2023-01-11T10:57:02.668Z,69.70
2023-01-11T11:00:01.858Z,69.80
2023-01-11T11:02:47.799Z,69.20
2023-01-11T11:05:26.958Z,69.40
2023-01-11T11:08:14.983Z,69.30
2023-01-11T11:11:04.015Z,69.60
2023-01-11T11:14:13.221Z,69.60
2023-01-11T11:16:43.618Z,69.60
2023-01-11T11:19:17.777Z,69.70
2023-01-11T11:21:50.664Z,69.70
2023-01-11T11:24:44.466Z,69.60
2023-01-11T11:27:30.307Z,69.70
2023-01-11T11:29:57.648Z,69.50
2023-01-11T11:32:52.114Z,69.60
2023-01-11T11:35:39.762Z,69.40
2023-01-11T11:38:22.631Z,69.00
2023-01-11T11:41:01.039Z,69.00
2023-01-11T11:43:28.660Z,69.30
2023-01-11T11:45:57.576Z,69.30
2023-01-11T11:48:27.808Z,69.30
2023-01-11T11:50:59.326Z,69.40
2023-01-11T11:53:58.063Z,69.40
2023-01-11T11:56:30.082Z,69.20
2023-01-11T11:58:59.611Z,69.10
2023-01-11T12:01:48.513Z,69.00
2023-01-11T12:04:38.846Z,69.00
2023-01-11T12:07:09.011Z,69.10
2023-01-11T12:09:38.721Z,69.10
2023-01-11T12:12:08.377Z,69.10
2023-01-11T12:14:37.025Z,69.10
2023-01-11T12:17:26.269Z,68.90
2023-01-11T12:19:53.702Z,69.00
2023-01-11T12:22:28.123Z,69.20
2023-01-11T12:25:21.708Z,69.20
2023-01-11T12:28:13.332Z,68.80
2023-01-11T12:31:12.944Z,68.90
2023-01-11T12:33:58.234Z,68.70
2023-01-11T12:36:46.596Z,68.60
2023-01-11T12:39:46.988Z,68.60
2023-01-11T12:42:55.771Z,68.70
2023-01-11T12:45:46.713Z,68.80
2023-01-11T12:48:53.908Z,68.80
2023-01-11T12:51:36.975Z,69.20
2023-01-11T12:54:33.974Z,69.30
2023-01-11T12:57:23.101Z,69.50
2023-01-11T13:00:34.379Z,69.50
2023-01-11T13:03:54.014Z,69.70
2023-01-11T13:06:44.772Z,69.40
2023-01-11T13:09:22.868Z,69.50
2023-01-11T13:11:52.938Z,69.70
2023-01-11T13:15:02.607Z,69.80
2023-01-11T13:17:49.410Z,69.70
2023-01-11T13:21:00.040Z,69.80
2023-01-11T13:23:51.357Z,69.60
2023-01-11T13:26:24.857Z,69.60
2023-01-11T13:29:05.439Z,69.80
2023-01-11T13:31:36.718Z,69.60
2023-01-11T13:34:22.920Z,69.60
2023-01-11T13:36:58.044Z,69.50
2023-01-11T13:39:40.812Z,69.30
2023-01-11T13:42:23.152Z,69.30
2023-01-11T13:45:03.843Z,69.00
2023-01-11T13:47:42.630Z,69.20
2023-01-11T13:50:10.366Z,69.10
2023-01-11T13:53:06.119Z,69.10
2023-01-11T13:56:10.482Z,69.10
2023-01-11T13:58:52.320Z,68.70
2023-01-11T14:01:31.301Z,69.00
2023-01-11T14:04:18.778Z,69.10
2023-01-11T14:06:58.211Z,69.10
2023-01-11T14:09:54.027Z,69.20
2023-01-11T14:12:31.337Z,69.10
2023-01-11T14:15:08.434Z,69.10
2023-01-11T14:17:56.876Z,69.10
2023-01-11T14:20:34.707Z,69.30
2023-01-11T14:23:14.066Z,69.30
2023-01-11T14:25:53.410Z,69.20
2023-01-11T14:28:51.757Z,69.20
2023-01-11T14:31:31.301Z,69.20
2023-01-11T14:34:26.650Z,69.10
2023-01-11T14:37:31.530Z,69.10
2023-01-11T14:40:17.305Z,69.30
2023-01-11T14:43:06.037Z,69.30
2023-01-11T14:45:48.424Z,69.30
2023-01-11T14:48:37.622Z,69.20
2023-01-11T14:51:33.240Z,69.20
2023-01-11T14:54:23.805Z,69.10
2023-01-11T14:56:58.852Z,69.10
2023-01-11T14:59:39.626Z,69.10
2023-01-11T15:02:15.207Z,69.20
2023-01-11T15:04:56.104Z,69.00
2023-01-11T15:07:30.981Z,68.70
2023-01-11T15:10:04.612Z,69.10
2023-01-11T15:12:37.875Z,69.30
2023-01-11T15:15:25.717Z,69.40
2023-01-11T15:18:15.936Z,69.60
2023-01-11T15:21:19.431Z,69.50
2023-01-11T15:23:50.596Z,69.70
2023-01-11T15:26:24.237Z,69.60
2023-01-11T15:29:20.990Z,69.60
2023-01-11T15:32:08.235Z,69.60
2023-01-11T15:34:43.086Z,69.60
2023-01-11T15:37:16.501Z,69.70
2023-01-11T15:40:16.602Z,69.70
2023-01-11T15:42:44.046Z,70.10
2023-01-11T15:45:34.346Z,69.70
2023-01-11T15:48:22.876Z,69.70
2023-01-11T15:51:36.736Z,69.60
2023-01-11T15:54:10.039Z,69.90
2023-01-11T15:56:58.601Z,69.80
2023-01-11T15:59:55.742Z,69.50
2023-01-11T16:02:46.076Z,69.40
2023-01-11T16:05:20.875Z,69.40
2023-01-11T16:07:56.508Z,69.70
2023-01-11T16:10:45.050Z,69.80
2023-01-11T16:14:00.891Z,70.00
2023-01-11T16:16:35.937Z,70.20
2023-01-11T16:19:15.401Z,70.10
2023-01-11T16:21:45.327Z,70.30
2023-01-11T16:24:22.157Z,70.20
2023-01-11T16:27:03.164Z,70.10
2023-01-11T16:29:36.286Z,70.20
2023-01-11T16:32:06.726Z,70.10
2023-01-11T16:34:43.327Z,70.00
2023-01-11T16:37:28.821Z,69.90
2023-01-11T16:40:16.111Z,70.10
2023-01-11T16:42:55.472Z,70.30
2023-01-11T16:45:39.745Z,70.40
2023-01-11T16:48:18.453Z,70.50
2023-01-11T16:51:06.976Z,70.60
2023-01-11T16:53:47.055Z,70.60
2023-01-11T16:56:21.454Z,70.60
2023-01-11T16:59:07.610Z,70.60
2023-01-11T17:01:58.743Z,70.80
2023-01-11T17:04:31.141Z,71.10
2023-01-11T17:07:27.746Z,71.10
2023-01-11T17:10:16.703Z,71.60
2023-01-11T17:12:47.241Z,71.40
2023-01-11T17:15:29.740Z,71.60
2023-01-11T17:18:03.975Z,71.70
2023-01-11T17:20:32.389Z,71.80
2023-01-11T17:23:00.134Z,72.00
2023-01-11T17:25:43.793Z,72.30
2023-01-11T17:28:19.894Z,72.50
2023-01-11T17:30:53.389Z,72.60
2023-01-11T17:33:32.372Z,72.70
2023-01-11T17:36:01.136Z,72.80
2023-01-11T17:38:29.939Z,72.90
2023-01-11T17:41:01.387Z,73.10
2023-01-11T17:43:48.814Z,73.20
2023-01-11T17:46:20.666Z,73.40
2023-01-11T17:48:55.852Z,73.50
2023-01-11T17:51:29.581Z,73.40
2023-01-11T17:53:57.100Z,73.50
2023-01-11T17:56:59.076Z,73.80
2023-01-11T17:59:28.146Z,74.10
2023-01-11T18:01:58.191Z,74.10
2023-01-11T18:04:27.559Z,74.40
2023-01-11T18:07:04.519Z,74.60
2023-01-11T18:09:45.862Z,74.70
2023-01-11T18:12:25.523Z,74.70
2023-01-11T18:14:58.190Z,74.80
2023-01-11T18:17:30.692Z,74.80
2023-01-11T18:20:21.443Z,74.90
2023-01-11T18:23:12.103Z,75.00
2023-01-11T18:25:40.953Z,75.00
2023-01-11T18:28:27.698Z,74.90
2023-01-11T18:30:59.226Z,75.20
2023-01-11T18:33:33.139Z,75.10
2023-01-11T18:36:04.552Z,75.20
2023-01-11T18:38:34.832Z,75.30
2023-01-11T18:41:37.754Z,75.40
2023-01-11T18:44:05.254Z,75.50
2023-01-11T18:46:38.427Z,75.40
2023-01-11T18:49:11.640Z,75.50
2023-01-11T18:51:45.380Z,75.50
2023-01-11T18:54:16.501Z,75.60
2023-01-11T18:56:46.237Z,75.80
2023-01-11T18:59:13.640Z,75.80
2023-01-11T19:01:54.316Z,75.90
2023-01-11T19:04:27.308Z,76.00
2023-01-11T19:06:54.779Z,76.00
2023-01-11T19:09:25.611Z,76.10
2023-01-11T19:11:53.016Z,76.20
2023-01-11T19:14:20.496Z,76.20
2023-01-11T19:16:47.985Z,76.30
2023-01-11T19:19:15.476Z,76.30
2023-01-11T19:21:46.177Z,76.30
2023-01-11T19:24:13.726Z,76.40
2023-01-11T19:26:43.783Z,76.40
2023-01-11T19:29:21.615Z,76.40
2023-01-11T19:31:50.014Z,76.50
2023-01-11T19:34:17.559Z,76.40
2023-01-11T19:36:45.420Z,76.40
2023-01-11T19:39:15.288Z,76.50
2023-01-11T19:42:02.031Z,76.60
2023-01-11T19:44:34.792Z,77.30
2023-01-11T19:47:11.875Z,76.70
2023-01-11T19:49:41.368Z,76.70
2023-01-11T19:52:22.061Z,76.80
2023-01-11T19:54:49.513Z,77.00
2023-01-11T19:57:26.537Z,77.10
2023-01-11T19:59:56.283Z,77.30
2023-01-11T20:02:24.591Z,77.50
2023-01-11T20:04:54.387Z,77.50
2023-01-11T20:07:21.764Z,77.60
2023-01-11T20:09:49.620Z,77.60
2023-01-11T20:12:17.048Z,77.70
2023-01-11T20:14:46.726Z,77.80
2023-01-11T20:17:21.006Z,77.80
2023-01-11T20:19:54.682Z,77.90
2023-01-11T20:22:24.029Z,78.00
2023-01-11T20:24:53.906Z,78.00
2023-01-11T20:27:21.668Z,78.10
2023-01-11T20:29:51.466Z,78.10
2023-01-11T20:32:40.791Z,78.10
2023-01-11T20:35:09.072Z,78.20
2023-01-11T20:37:36.451Z,78.20
2023-01-11T20:40:04.069Z,78.20
2023-01-11T20:42:32.202Z,78.20
2023-01-11T20:44:59.768Z,78.30
2023-01-11T20:47:27.304Z,78.40
2023-01-11T20:49:54.814Z,78.40
2023-01-11T20:52:24.425Z,78.50
2023-01-11T20:54:55.073Z,78.80
2023-01-11T20:57:22.714Z,79.00
2023-01-11T20:59:54.670Z,79.10
2023-01-11T21:02:24.512Z,79.20
2023-01-11T21:04:54.722Z,79.20
2023-01-11T21:07:22.113Z,79.20
2023-01-11T21:09:49.699Z,79.20
2023-01-11T21:12:19.987Z,79.60
2023-01-11T21:14:47.287Z,79.80
2023-01-11T21:17:14.643Z,80.20
2023-01-11T21:19:43.805Z,80.60
2023-01-11T21:22:11.222Z,80.80
2023-01-11T21:24:40.920Z,81.20
2023-01-11T21:27:08.573Z,81.40
2023-01-11T21:29:36.145Z,81.40
2023-01-11T21:32:03.534Z,81.50
2023-01-11T21:34:30.943Z,81.70
2023-01-11T21:36:58.257Z,81.80
2023-01-11T21:39:27.970Z,82.00
2023-01-11T21:41:55.299Z,82.30
2023-01-11T21:44:27.402Z,82.50
2023-01-11T21:46:57.169Z,82.60
2023-01-11T21:49:26.936Z,82.60
2023-01-11T21:51:56.874Z,82.40
2023-01-11T21:54:27.098Z,82.60
2023-01-11T21:56:54.605Z,82.50
2023-01-11T21:59:22.548Z,82.70
2023-01-11T22:01:50.247Z,82.80
2023-01-11T22:04:19.575Z,82.80
2023-01-11T22:06:51.614Z,83.00
2023-01-11T22:09:21.894Z,83.00
2023-01-11T22:11:51.066Z,83.10
2023-01-11T22:14:18.554Z,83.20
2023-01-11T22:16:46.050Z,83.20
2023-01-11T22:19:14.445Z,83.30
2023-01-11T22:21:44.107Z,83.30
2023-01-11T22:24:14.236Z,83.50
2023-01-11T22:26:45.091Z,83.40
2023-01-11T22:29:12.792Z,83.30
2023-01-11T22:31:52.736Z,83.30
2023-01-11T22:34:20.400Z,83.40
2023-01-11T22:36:48.326Z,83.40
2023-01-11T22:39:19.674Z,83.40
2023-01-11T22:41:48.633Z,83.50
2023-01-11T22:44:19.452Z,83.40
2023-01-11T22:46:47.270Z,83.40
2023-01-11T22:49:15.445Z,83.30
2023-01-11T22:51:48.416Z,83.30
2023-01-11T22:54:15.983Z,83.10
2023-01-11T22:56:44.843Z,83.10
2023-01-11T22:59:12.195Z,83.10
2023-01-11T23:01:41.438Z,83.00
2023-01-11T23:04:12.623Z,83.00
2023-01-11T23:06:42.602Z,83.10
2023-01-11T23:09:16.237Z,83.10
2023-01-11T23:12:03.620Z,83.00
2023-01-11T23:14:33.121Z,82.90
2023-01-11T23:17:06.917Z,82.80
2023-01-11T23:19:39.983Z,82.70
2023-01-11T23:22:08.520Z,82.70
2023-01-11T23:24:37.164Z,82.60
2023-01-11T23:27:04.900Z,82.50
2023-01-11T23:29:37.199Z,82.50
2023-01-11T23:32:04.822Z,82.50
2023-01-11T23:34:32.201Z,82.50
2023-01-11T23:36:59.610Z,82.40
2023-01-11T23:39:27.028Z,82.40
2023-01-11T23:42:14.970Z,82.40
2023-01-11T23:44:42.341Z,82.30
2023-01-11T23:47:22.082Z,82.20
2023-01-11T23:49:51.652Z,82.20
2023-01-11T23:52:21.044Z,82.10
2023-01-11T23:54:48.449Z,82.10
2023-01-11T23:57:16.436Z,82.10
2023-01-11T23:59:48.735Z,81.90
